Time;durP1;ratioP1;P1;durP2;ratioP2;P2;SDS_P1;SDS_P2;PMS_P1;PMS_P2;Temp;Humidity;BMP_temperature;BMP_pressure;BME280_temperature;BME280_humidity;BME280_pressure;Samples;Min_cycle;Max_cycle;Signal;HPM_P1;HPM_P2
2023/07/13 00:02:39;;;;;;;9.65;8.75;;;;;;;;;;10283731;28;20111;-72
2023/07/13 00:07:36;;;;;;;10.02;9.15;;;;;;;;;;10275098;28;20052;-69
2023/07/13 00:12:37;;;;;;;9.60;8.80;;;;;;;;;;10271699;28;20045;-70
2023/07/13 00:17:38;;;;;;;9.70;8.85;;;;;;;;;;10301512;28;20044;-70
2023/07/13 00:22:38;;;;;;;9.07;8.30;;;;;;;;;;10281763;28;20063;-70
2023/07/13 00:27:34;;;;;;;10.30;9.30;;;;;;;;;;10280381;28;20411;-69
2023/07/13 00:32:33;;;;;;;9.35;8.65;;;;;;;;;;10270945;28;20521;-69
2023/07/13 00:37:30;;;;;;;9.95;9.13;;;;;;;;;;10281429;28;20102;-69
2023/07/13 00:42:35;;;;;;;10.20;9.25;;;;;;;;;;10262127;28;20049;-69
2023/07/13 00:47:34;;;;;;;10.03;9.23;;;;;;;;;;10279223;28;20044;-69
2023/07/13 00:52:31;;;;;;;10.75;9.85;;;;;;;;;;10275797;28;20079;-70
2023/07/13 00:57:38;;;;;;;11.32;10.32;;;;;;;;;;10270733;28;20534;-69
2023/07/13 01:02:37;;;;;;;11.45;10.45;;;;;;;;;;10270233;28;20041;-71
2023/07/13 01:07:34;;;;;;;10.82;9.93;;;;;;;;;;10262720;28;20042;-71
2023/07/13 01:12:34;;;;;;;14.50;10.85;;;;;;;;;;10276896;28;20136;-71
2023/07/13 01:17:33;;;;;;;11.77;10.70;;;;;;;;;;10268946;28;20044;-71
2023/07/13 01:22:33;;;;;;;11.77;10.73;;;;;;;;;;10281060;28;20396;-71
2023/07/13 01:27:33;;;;;;;11.68;10.68;;;;;;;;;;10284886;28;20037;-71
2023/07/13 01:32:35;;;;;;;10.95;9.95;;;;;;;;;;10280745;28;20048;-71
2023/07/13 01:37:37;;;;;;;10.60;9.82;;;;;;;;;;10274451;28;20044;-71
2023/07/13 01:42:42;;;;;;;10.73;9.88;;;;;;;;;;10268884;28;20044;-68
2023/07/13 01:47:50;;;;;;;10.55;9.85;;;;;;;;;;10247244;28;20456;-68
2023/07/13 01:52:47;;;;;;;10.88;9.98;;;;;;;;;;10270661;28;20136;-71
2023/07/13 01:57:46;;;;;;;11.13;10.23;;;;;;;;;;10277657;28;20036;-71
2023/07/13 02:02:51;;;;;;;12.27;11.13;;;;;;;;;;10250762;28;20748;-71
2023/07/13 02:07:51;;;;;;;;;;;;;;;;;;10275555;28;20048;-68
2023/07/13 02:12:49;;;;;;;12.63;11.40;;;;;;;;;;10274338;28;20008;-69
2023/07/13 02:17:48;;;;;;;12.15;11.20;;;;;;;;;;10268162;28;20083;-71
2023/07/13 02:22:48;;;;;;;12.25;11.02;;;;;;;;;;10278107;28;20094;-71
2023/07/13 02:27:45;;;;;;;12.63;11.50;;;;;;;;;;10271860;28;20063;-70
2023/07/13 02:32:53;;;;;;;12.07;11.07;;;;;;;;;;10273955;28;20127;-71
2023/07/13 02:37:56;;;;;;;12.30;11.30;;;;;;;;;;10274471;28;20479;-71
2023/07/13 02:42:53;;;;;;;13.15;11.75;;;;;;;;;;10265634;28;20047;-71
2023/07/13 02:47:49;;;;;;;12.98;11.85;;;;;;;;;;10276195;28;20057;-71
2023/07/13 02:52:46;;;;;;;13.98;12.65;;;;;;;;;;10274384;28;20121;-72
2023/07/13 02:57:48;;;;;;;13.07;11.95;;;;;;;;;;10270661;28;20050;-70
2023/07/13 03:02:50;;;;;;;14.10;12.73;;;;;;;;;;10270435;28;20051;-70
2023/07/13 03:07:49;;;;;;;13.73;12.32;;;;;;;;;;10257169;28;20045;-70
2023/07/13 03:12:46;;;;;;;12.88;11.88;;;;;;;;;;10271049;28;20047;-69
2023/07/13 03:17:45;;;;;;;14.65;13.45;;;;;;;;;;10267387;28;20155;-69
2023/07/13 03:22:42;;;;;;;12.85;11.88;;;;;;;;;;10271180;28;20040;-69
2023/07/13 03:27:41;;;;;;;13.60;12.43;;;;;;;;;;10259411;28;20045;-69
2023/07/13 03:32:45;;;;;;;12.82;11.43;;;;;;;;;;10278311;28;20506;-69
2023/07/13 03:37:44;;;;;;;12.13;11.27;;;;;;;;;;10267359;28;20395;-70
2023/07/13 03:42:49;;;;;;;12.93;11.82;;;;;;;;;;10263165;28;20047;-69
2023/07/13 03:47:49;;;;;;;12.93;11.82;;;;;;;;;;10264577;28;20056;-69
2023/07/13 03:52:48;;;;;;;12.68;11.65;;;;;;;;;;10266979;28;20337;-70
2023/07/13 03:57:48;;;;;;;12.50;11.38;;;;;;;;;;10259859;28;20041;-70
2023/07/13 04:02:47;;;;;;;12.50;11.23;;;;;;;;;;10266686;28;20470;-70
2023/07/13 04:07:44;;;;;;;13.48;12.23;;;;;;;;;;10263019;28;20413;-71
2023/07/13 04:12:41;;;;;;;11.45;10.15;;;;;;;;;;10262257;28;20140;-71
2023/07/13 04:17:42;;;;;;;11.30;9.93;;;;;;;;;;10253056;28;20034;-69
2023/07/13 04:22:44;;;;;;;11.85;9.98;;;;;;;;;;10263041;28;20052;-70
2023/07/13 04:27:44;;;;;;;9.00;8.10;;;;;;;;;;10278315;28;20124;-69
2023/07/13 04:32:41;;;;;;;9.18;8.38;;;;;;;;;;10268631;28;20044;-69
2023/07/13 04:37:41;;;;;;;9.63;8.73;;;;;;;;;;10265832;28;20053;-71
2023/07/13 04:42:38;;;;;;;12.52;9.85;;;;;;;;;;10273178;28;20087;-71
2023/07/13 04:47:36;;;;;;;10.90;8.75;;;;;;;;;;10273065;28;20371;-71
2023/07/13 04:52:37;;;;;;;11.00;9.68;;;;;;;;;;10267310;28;20045;-72
2023/07/13 04:57:40;;;;;;;9.85;8.68;;;;;;;;;;10261726;28;20037;-71
2023/07/13 05:02:38;;;;;;;13.05;9.25;;;;;;;;;;10264843;28;20539;-72
2023/07/13 05:07:36;;;;;;;12.70;8.38;;;;;;;;;;10292527;28;20052;-72
2023/07/13 05:12:41;;;;;;;13.38;8.80;;;;;;;;;;10278392;28;20045;-73
2023/07/13 05:17:40;;;;;;;9.98;8.73;;;;;;;;;;10263811;28;20431;-72
2023/07/13 05:22:40;;;;;;;14.45;8.48;;;;;;;;;;10282102;28;20047;-72
2023/07/13 05:27:41;;;;;;;11.18;8.85;;;;;;;;;;10261892;28;20068;-72
2023/07/13 05:32:39;;;;;;;11.13;9.30;;;;;;;;;;10264173;28;20064;-73
2023/07/13 05:37:38;;;;;;;16.63;9.55;;;;;;;;;;10293098;28;20644;-72
2023/07/13 05:42:38;;;;;;;16.85;10.43;;;;;;;;;;10279827;28;20040;-73
2023/07/13 05:47:37;;;;;;;15.18;9.85;;;;;;;;;;10281091;28;20414;-72
2023/07/13 05:52:37;;;;;;;15.65;9.85;;;;;;;;;;10292452;28;20049;-72
2023/07/13 05:57:38;;;;;;;18.10;10.18;;;;;;;;;;10285799;28;20036;-72
2023/07/13 06:02:38;;;;;;;15.68;10.48;;;;;;;;;;10272484;28;20143;-72
2023/07/13 06:07:35;;;;;;;12.45;10.00;;;;;;;;;;10273062;28;20053;-71
2023/07/13 06:12:32;;;;;;;18.58;10.60;;;;;;;;;;10267726;28;20445;-72
2023/07/13 06:17:38;;;;;;;11.85;8.90;;;;;;;;;;10281683;28;20033;-72
2023/07/13 06:22:35;;;;;;;18.02;10.43;;;;;;;;;;10285195;28;20043;-71
2023/07/13 06:27:32;;;;;;;10.30;8.23;;;;;;;;;;10287995;28;20052;-72
2023/07/13 06:32:35;;;;;;;16.30;8.68;;;;;;;;;;10281607;28;20098;-72
2023/07/13 06:37:36;;;;;;;13.82;9.02;;;;;;;;;;10267907;28;20041;-71
2023/07/13 06:42:38;;;;;;;10.70;9.07;;;;;;;;;;10272548;28;20040;-72
2023/07/13 06:47:36;;;;;;;10.57;8.48;;;;;;;;;;10270494;28;20052;-72
2023/07/13 06:52:46;;;;;;;12.05;8.60;;;;;;;;;;10288622;28;20476;-72
2023/07/13 06:57:45;;;;;;;10.88;8.57;;;;;;;;;;10257206;28;20087;-72
2023/07/13 07:02:42;;;;;;;11.90;8.88;;;;;;;;;;10278320;28;20080;-72
2023/07/13 07:07:42;;;;;;;14.43;9.70;;;;;;;;;;10261077;28;20164;-72
2023/07/13 07:12:50;;;;;;;15.55;8.63;;;;;;;;;;10269812;28;20136;-73
2023/07/13 07:17:48;;;;;;;13.30;9.20;;;;;;;;;;10279973;28;20053;-73
2023/07/13 07:22:46;;;;;;;12.45;9.20;;;;;;;;;;10284987;28;20063;-73
2023/07/13 07:27:45;;;;;;;15.00;9.18;;;;;;;;;;10288476;28;20048;-72
2023/07/13 07:32:48;;;;;;;12.80;8.60;;;;;;;;;;10288045;28;20080;-72
2023/07/13 07:43:20;;;;;;;11.35;8.45;;;;;;;;;;10283268;28;20033;-71
2023/07/13 07:48:19;;;;;;;14.55;9.13;;;;;;;;;;10271275;28;20055;-72
2023/07/13 07:53:16;;;;;;;12.48;8.10;;;;;;;;;;10290017;28;20061;-73
2023/07/13 07:58:13;;;;;;;11.68;8.70;;;;;;;;;;10260985;28;20040;-71
2023/07/13 08:03:30;;;;;;;11.48;8.93;;;;;;;;;;10280283;28;20522;-71
2023/07/13 08:08:48;;;;;;;11.55;8.95;;;;;;;;;;10279304;28;20778;-72
2023/07/13 08:13:50;;;;;;;12.82;9.05;;;;;;;;;;10270456;28;20038;-72
2023/07/13 08:18:52;;;;;;;16.95;8.38;;;;;;;;;;10288355;28;20047;-72
2023/07/13 08:23:55;;;;;;;14.70;9.10;;;;;;;;;;10280842;28;20045;-72
2023/07/13 08:28:55;;;;;;;9.85;8.82;;;;;;;;;;10282015;28;20103;-72
2023/07/13 08:34:03;;;;;;;13.98;8.18;;;;;;;;;;10293117;28;20056;-71
2023/07/13 08:39:06;;;;;;;12.48;8.10;;;;;;;;;;10308834;28;20051;-72
2023/07/13 08:44:09;;;;;;;11.23;7.93;;;;;;;;;;10277169;28;20103;-72
2023/07/13 08:49:16;;;;;;;12.82;8.70;;;;;;;;;;10286135;28;20127;-72
2023/07/13 08:54:25;;;;;;;13.98;8.75;;;;;;;;;;10275266;28;20047;-72
2023/07/13 08:59:26;;;;;;;16.47;8.40;;;;;;;;;;10294325;28;20053;-73
2023/07/13 09:04:36;;;;;;;10.05;8.27;;;;;;;;;;10290027;28;20048;-73
2023/07/13 09:09:52;;;;;;;17.80;8.10;;;;;;;;;;10292566;28;20045;-72
2023/07/13 09:14:51;;;;;;;12.68;7.22;;;;;;;;;;10285265;28;20098;-72
2023/07/13 09:19:56;;;;;;;10.13;7.63;;;;;;;;;;10288973;28;20508;-72
2023/07/13 09:25:08;;;;;;;9.82;8.57;;;;;;;;;;10280679;28;20135;-72
2023/07/13 09:30:17;;;;;;;13.48;9.75;;;;;;;;;;10278443;28;20045;-71
2023/07/13 09:35:23;;;;;;;12.68;8.45;;;;;;;;;;10282828;28;20049;-71
2023/07/13 09:40:43;;;;;;;9.38;8.13;;;;;;;;;;10279467;28;20434;-72
2023/07/13 09:45:45;;;;;;;8.98;8.25;;;;;;;;;;10276435;28;20681;-71
2023/07/13 09:50:44;;;;;;;10.95;8.65;;;;;;;;;;10282061;28;20405;-72
2023/07/13 09:55:45;;;;;;;9.77;8.77;;;;;;;;;;10276200;28;20094;-72
2023/07/13 10:01:06;;;;;;;10.27;8.90;;;;;;;;;;10254921;28;20087;-71
2023/07/13 10:06:14;;;;;;;10.68;8.20;;;;;;;;;;10254692;28;20314;-72
2023/07/13 10:11:34;;;;;;;10.13;8.52;;;;;;;;;;10258684;28;20069;-72
2023/07/13 10:16:35;;;;;;;9.93;8.93;;;;;;;;;;10260633;28;20449;-72
2023/07/13 10:21:36;;;;;;;10.87;9.00;;;;;;;;;;10253744;28;20047;-72
2023/07/13 10:26:42;;;;;;;9.77;8.73;;;;;;;;;;10260013;28;20049;-72
2023/07/13 10:31:44;;;;;;;8.88;7.72;;;;;;;;;;10277429;28;20049;-73
2023/07/13 10:36:43;;;;;;;9.15;8.25;;;;;;;;;;10260098;28;20041;-72
2023/07/13 10:41:46;;;;;;;8.68;7.78;;;;;;;;;;10271447;28;20690;-74
2023/07/13 10:46:49;;;;;;;11.05;8.25;;;;;;;;;;10265801;28;20040;-73
2023/07/13 10:51:51;;;;;;;9.20;8.27;;;;;;;;;;10272271;28;20037;-72
2023/07/13 10:56:53;;;;;;;9.77;7.47;;;;;;;;;;10257082;28;20507;-72
2023/07/13 11:01:58;;;;;;;8.18;7.15;;;;;;;;;;10273648;28;20502;-72
2023/07/13 11:07:04;;;;;;;8.98;7.78;;;;;;;;;;10274303;28;20048;-72
2023/07/13 11:12:14;;;;;;;9.63;7.60;;;;;;;;;;10268922;28;20604;-72
2023/07/13 11:17:52;;;;;;;8.93;8.02;;;;;;;;;;10285670;28;20144;-72
2023/07/13 11:23:10;;;;;;;8.23;7.38;;;;;;;;;;10280321;28;20699;-72
2023/07/13 11:28:10;;;;;;;9.82;7.70;;;;;;;;;;10280410;28;20212;-72
2023/07/13 11:33:21;;;;;;;8.25;7.40;;;;;;;;;;10292019;28;20051;-72
2023/07/13 11:38:25;;;;;;;7.90;7.03;;;;;;;;;;10281031;28;20033;-72
2023/07/13 11:43:23;;;;;;;9.52;7.20;;;;;;;;;;10277521;28;20042;-72
2023/07/13 11:48:29;;;;;;;10.45;7.10;;;;;;;;;;10284077;28;20506;-71
2023/07/13 11:53:30;;;;;;;8.57;7.22;;;;;;;;;;10290377;28;20043;-71
2023/07/13 11:58:29;;;;;;;10.90;9.02;;;;;;;;;;10279721;28;20136;-72
2023/07/13 12:03:29;;;;;;;9.27;6.85;;;;;;;;;;10284601;28;20064;-72
2023/07/13 12:08:29;;;;;;;8.05;7.25;;;;;;;;;;10282693;28;20048;-72
2023/07/13 12:13:29;;;;;;;11.60;7.05;;;;;;;;;;10267160;28;20049;-72
2023/07/13 12:18:30;;;;;;;8.23;6.68;;;;;;;;;;10271308;28;20049;-72
2023/07/13 12:23:32;;;;;;;13.18;7.55;;;;;;;;;;10283787;28;20033;-71
2023/07/13 12:28:34;;;;;;;12.82;10.27;;;;;;;;;;10280142;28;20052;-72
2023/07/13 12:33:41;;;;;;;12.18;9.50;;;;;;;;;;10262288;28;20065;-72
2023/07/13 12:38:38;;;;;;;10.75;9.45;;;;;;;;;;10281884;28;20411;-72
2023/07/13 12:43:39;;;;;;;11.85;10.52;;;;;;;;;;10261720;28;20037;-72
2023/07/13 12:48:45;;;;;;;11.50;10.55;;;;;;;;;;10251765;28;20044;-72
2023/07/13 12:53:59;;;;;;;10.90;9.55;;;;;;;;;;10251904;28;20162;-73
2023/07/13 12:58:58;;;;;;;13.00;8.75;;;;;;;;;;10280652;28;20339;-73
2023/07/13 13:04:00;;;;;;;11.98;10.98;;;;;;;;;;10284979;28;20040;-73
2023/07/13 13:09:00;;;;;;;;;;;;;;;;;;10271592;28;20726;-72
2023/07/13 13:13:58;;;;;;;9.45;8.48;;;;;;;;;;10284991;28;19928;-73
2023/07/13 13:19:13;;;;;;;9.77;8.18;;;;;;;;;;10289102;28;20040;-73
2023/07/13 13:24:16;;;;;;;9.18;8.38;;;;;;;;;;10284924;28;20043;-73
2023/07/13 13:29:18;;;;;;;7.45;6.85;;;;;;;;;;10267547;28;20055;-72
2023/07/13 13:34:18;;;;;;;10.93;7.25;;;;;;;;;;10276075;28;20037;-72
2023/07/13 13:39:21;;;;;;;9.55;8.65;;;;;;;;;;10282650;28;20037;-72
2023/07/13 13:44:24;;;;;;;7.30;6.68;;;;;;;;;;10278341;28;20131;-72
2023/07/13 13:49:25;;;;;;;9.50;8.60;;;;;;;;;;10268599;28;20132;-73
2023/07/13 13:54:23;;;;;;;9.82;7.28;;;;;;;;;;10266246;28;20044;-72
2023/07/13 13:59:26;;;;;;;11.05;7.13;;;;;;;;;;10269639;28;20069;-72
2023/07/13 14:04:29;;;;;;;7.38;6.60;;;;;;;;;;10273080;28;20033;-72
2023/07/13 14:09:26;;;;;;;5.97;5.40;;;;;;;;;;10280696;28;20063;-72
2023/07/13 14:14:27;;;;;;;7.65;5.18;;;;;;;;;;10264358;28;20052;-71
2023/07/13 14:19:27;;;;;;;7.13;5.85;;;;;;;;;;10270533;28;20041;-72
2023/07/13 14:24:24;;;;;;;7.13;6.43;;;;;;;;;;10270048;28;20053;-72
2023/07/13 14:29:25;;;;;;;6.22;4.85;;;;;;;;;;10301706;28;20044;-71
2023/07/13 14:34:25;;;;;;;5.82;5.22;;;;;;;;;;10276055;28;20071;-72
2023/07/13 14:39:25;;;;;;;7.97;5.70;;;;;;;;;;10290598;28;20037;-71
2023/07/13 14:44:24;;;;;;;11.48;6.25;;;;;;;;;;10272868;28;20119;-70
2023/07/13 14:49:35;;;;;;;6.22;5.63;;;;;;;;;;10265019;28;20060;-71
2023/07/13 14:54:32;;;;;;;6.95;5.93;;;;;;;;;;10277584;28;20510;-69
2023/07/13 14:59:29;;;;;;;7.18;6.18;;;;;;;;;;10271145;28;20148;-70
2023/07/13 15:04:25;;;;;;;6.60;5.93;;;;;;;;;;10273841;28;20036;-71
2023/07/13 15:09:28;;;;;;;7.20;6.50;;;;;;;;;;10273494;28;20128;-70
2023/07/13 15:14:26;;;;;;;7.40;6.10;;;;;;;;;;10266454;28;20104;-70
2023/07/13 15:19:31;;;;;;;7.67;6.97;;;;;;;;;;10283929;28;20045;-69
2023/07/13 15:24:30;;;;;;;7.28;6.32;;;;;;;;;;10275555;28;20033;-70
2023/07/13 15:29:32;;;;;;;6.70;6.10;;;;;;;;;;10279598;28;20052;-71
2023/07/13 15:34:30;;;;;;;6.68;5.75;;;;;;;;;;10276609;28;20413;-71
2023/07/13 15:39:27;;;;;;;8.73;6.85;;;;;;;;;;10277227;28;20140;-71
2023/07/13 15:44:26;;;;;;;5.78;5.28;;;;;;;;;;10276642;28;20544;-72
2023/07/13 15:49:25;;;;;;;6.82;6.22;;;;;;;;;;10270825;28;20049;-71
2023/07/13 15:54:22;;;;;;;6.55;5.70;;;;;;;;;;10287215;28;20040;-72
2023/07/13 15:59:23;;;;;;;6.65;5.90;;;;;;;;;;10274396;28;20128;-72
2023/07/13 16:04:23;;;;;;;6.75;6.05;;;;;;;;;;10261930;28;20141;-71
2023/07/13 16:09:26;;;;;;;7.40;5.55;;;;;;;;;;10272677;28;20041;-72
2023/07/13 16:14:26;;;;;;;6.30;5.60;;;;;;;;;;10284417;28;20105;-72
2023/07/13 16:19:28;;;;;;;6.65;5.35;;;;;;;;;;10285099;28;20037;-72
2023/07/13 16:24:28;;;;;;;6.88;5.40;;;;;;;;;;10262492;28;20080;-72
2023/07/13 16:29:29;;;;;;;6.10;5.45;;;;;;;;;;10283431;28;20555;-72
2023/07/13 16:34:28;;;;;;;5.68;5.22;;;;;;;;;;10288708;28;20524;-72
2023/07/13 16:39:29;;;;;;;5.75;5.25;;;;;;;;;;10267362;28;20037;-72
2023/07/13 16:44:30;;;;;;;7.40;6.70;;;;;;;;;;10259590;28;20048;-72
2023/07/13 16:49:35;;;;;;;5.70;5.10;;;;;;;;;;10268747;28;20422;-72
2023/07/13 16:54:35;;;;;;;7.05;5.07;;;;;;;;;;10269174;28;20072;-72
2023/07/13 16:59:34;;;;;;;5.65;5.00;;;;;;;;;;10270765;28;20049;-72
2023/07/13 17:04:39;;;;;;;6.47;4.82;;;;;;;;;;10261848;28;20049;-71
2023/07/13 17:09:43;;;;;;;5.35;4.85;;;;;;;;;;10269501;28;20060;-71
2023/07/13 17:14:40;;;;;;;6.18;5.50;;;;;;;;;;10254312;28;20045;-72
2023/07/13 17:19:41;;;;;;;9.88;5.78;;;;;;;;;;10283999;28;20053;-72
2023/07/13 17:24:44;;;;;;;6.15;5.07;;;;;;;;;;10267603;28;20612;-72
2023/07/13 17:29:41;;;;;;;6.30;5.15;;;;;;;;;;10261481;28;20049;-72
2023/07/13 17:34:44;;;;;;;5.30;4.68;;;;;;;;;;10271013;28;20052;-73
2023/07/13 17:39:45;;;;;;;5.78;5.03;;;;;;;;;;10261738;28;20037;-73
2023/07/13 17:44:45;;;;;;;5.50;5.00;;;;;;;;;;10267817;28;20038;-73
2023/07/13 17:49:44;;;;;;;6.10;5.32;;;;;;;;;;10264201;28;20092;-73
2023/07/13 17:54:44;;;;;;;5.82;5.22;;;;;;;;;;10271953;28;20139;-73
2023/07/13 17:59:49;;;;;;;5.95;5.20;;;;;;;;;;10261930;28;20041;-73
2023/07/13 18:04:46;;;;;;;6.90;5.25;;;;;;;;;;10274994;28;20044;-73
2023/07/13 18:09:46;;;;;;;9.30;6.10;;;;;;;;;;10257740;28;20138;-73
2023/07/13 18:14:45;;;;;;;25.33;18.17;;;;;;;;;;10264598;28;20488;-73
2023/07/13 18:19:47;;;;;;;6.72;5.00;;;;;;;;;;10275901;28;20044;-73
2023/07/13 18:24:50;;;;;;;6.10;5.55;;;;;;;;;;10279191;28;20639;-73
2023/07/13 18:29:47;;;;;;;5.70;5.20;;;;;;;;;;10281895;28;20041;-73
2023/07/13 18:34:53;;;;;;;5.53;5.03;;;;;;;;;;10276156;28;20045;-73
2023/07/13 18:39:50;;;;;;;;;;;;;;;;;;10268821;28;20094;-74
2023/07/13 18:44:48;;;;;;;7.43;5.82;;;;;;;;;;10260639;28;19924;-72
2023/07/13 18:49:45;;;;;;;5.75;5.22;;;;;;;;;;10268219;28;20049;-71
2023/07/13 18:54:43;;;;;;;9.35;4.90;;;;;;;;;;10257211;28;20175;-71
2023/07/13 18:59:42;;;;;;;8.93;5.30;;;;;;;;;;10260531;28;20071;-72
2023/07/13 19:04:42;;;;;;;5.93;5.32;;;;;;;;;;10283303;28;20048;-72
2023/07/13 19:09:40;;;;;;;11.40;5.88;;;;;;;;;;10260798;28;20061;-72
2023/07/13 19:14:45;;;;;;;7.00;5.65;;;;;;;;;;10259121;28;20041;-72
2023/07/13 19:19:48;;;;;;;6.15;5.18;;;;;;;;;;10290786;28;20041;-71
2023/07/13 19:24:45;;;;;;;6.57;5.88;;;;;;;;;;10253193;28;20446;-72
2023/07/13 19:29:42;;;;;;;6.38;5.70;;;;;;;;;;10262641;28;20746;-72
2023/07/13 19:34:42;;;;;;;6.95;5.57;;;;;;;;;;10278155;28;20041;-72
2023/07/13 19:39:44;;;;;;;7.57;6.20;;;;;;;;;;10269180;28;20045;-72
2023/07/13 19:44:44;;;;;;;6.20;5.60;;;;;;;;;;10290586;28;20061;-72
2023/07/13 19:49:42;;;;;;;6.78;5.70;;;;;;;;;;10262048;28;20050;-72
2023/07/13 19:54:42;;;;;;;6.85;5.93;;;;;;;;;;10264334;28;20527;-71
2023/07/13 19:59:41;;;;;;;7.47;5.90;;;;;;;;;;10279918;28;20041;-72
2023/07/13 20:04:43;;;;;;;5.85;5.35;;;;;;;;;;10275623;28;20090;-72
2023/07/13 20:09:48;;;;;;;7.38;5.85;;;;;;;;;;10278975;28;20063;-71
2023/07/13 20:14:46;;;;;;;6.87;6.17;;;;;;;;;;10249540;28;20256;-72
2023/07/13 20:19:46;;;;;;;6.05;5.50;;;;;;;;;;10267959;28;20037;-72
2023/07/13 20:24:49;;;;;;;6.90;6.18;;;;;;;;;;10274555;28;20044;-72
2023/07/13 20:29:51;;;;;;;6.70;6.00;;;;;;;;;;10282619;28;20156;-72
2023/07/13 20:34:51;;;;;;;6.50;5.80;;;;;;;;;;10280465;28;20083;-72
2023/07/13 20:39:53;;;;;;;5.97;5.38;;;;;;;;;;10271865;28;20041;-72
2023/07/13 20:44:55;;;;;;;6.57;6.03;;;;;;;;;;10271984;28;20033;-72
2023/07/13 20:49:57;;;;;;;5.68;5.18;;;;;;;;;;10272915;28;20048;-73
2023/07/13 20:54:56;;;;;;;5.43;4.93;;;;;;;;;;10266006;28;20049;-72
2023/07/13 20:59:53;;;;;;;5.57;5.13;;;;;;;;;;10264248;28;20049;-74
2023/07/13 21:04:56;;;;;;;5.80;5.30;;;;;;;;;;10271016;28;20475;-73
2023/07/13 21:09:55;;;;;;;6.47;5.82;;;;;;;;;;10273918;28;20080;-74
2023/07/13 21:14:52;;;;;;;6.22;5.55;;;;;;;;;;10269931;28;20037;-74
2023/07/13 21:19:52;;;;;;;5.88;5.30;;;;;;;;;;10277929;28;20119;-73
2023/07/13 21:24:54;;;;;;;6.40;5.38;;;;;;;;;;10265011;28;20040;-73
2023/07/13 21:29:56;;;;;;;7.10;5.57;;;;;;;;;;10281688;28;20080;-73
2023/07/13 21:35:05;;;;;;;8.05;6.00;;;;;;;;;;10270946;28;20042;-73
2023/07/13 21:40:02;;;;;;;7.28;6.43;;;;;;;;;;10253726;28;20060;-72
2023/07/13 21:45:01;;;;;;;7.22;6.00;;;;;;;;;;10276183;28;20513;-73
2023/07/13 21:50:01;;;;;;;6.75;6.03;;;;;;;;;;10263000;28;20056;-71
2023/07/13 21:54:58;;;;;;;6.47;5.85;;;;;;;;;;10274695;28;20472;-72
2023/07/13 21:59:54;;;;;;;8.05;6.43;;;;;;;;;;10282555;28;20049;-72
2023/07/13 22:04:54;;;;;;;6.47;5.88;;;;;;;;;;10269900;28;20084;-72
2023/07/13 22:09:55;;;;;;;7.10;6.40;;;;;;;;;;10265679;28;20128;-72
2023/07/13 22:14:59;;;;;;;7.60;6.32;;;;;;;;;;10270849;28;20053;-71
2023/07/13 22:19:56;;;;;;;10.85;6.93;;;;;;;;;;10256691;28;20046;-70
2023/07/13 22:24:53;;;;;;;8.13;6.63;;;;;;;;;;10270955;28;20061;-71
2023/07/13 22:29:57;;;;;;;8.10;7.30;;;;;;;;;;10266960;28;20406;-72
2023/07/13 22:35:00;;;;;;;9.85;6.80;;;;;;;;;;10269784;28;20131;-72
2023/07/13 22:40:00;;;;;;;8.13;7.43;;;;;;;;;;10273107;28;20094;-72
2023/07/13 22:45:04;;;;;;;7.70;7.00;;;;;;;;;;10277941;28;20111;-72
2023/07/13 22:50:02;;;;;;;;;;;;;;;;;;10265793;28;20081;-71
2023/07/13 22:54:59;;;;;;;8.05;7.32;;;;;;;;;;10273451;28;20014;-72
2023/07/13 22:59:57;;;;;;;8.52;7.55;;;;;;;;;;10273921;28;20099;-73
2023/07/13 23:04:57;;;;;;;8.40;7.32;;;;;;;;;;10267545;28;20053;-73
2023/07/13 23:09:55;;;;;;;9.07;7.50;;;;;;;;;;10287196;28;20059;-73
2023/07/13 23:15:09;;;;;;;8.50;7.65;;;;;;;;;;10266198;28;20045;-73
2023/07/13 23:20:27;;;;;;;8.85;7.95;;;;;;;;;;10267877;28;20052;-75
2023/07/13 23:25:36;;;;;;;9.15;8.30;;;;;;;;;;10276929;28;20045;-71
2023/07/13 23:30:34;;;;;;;10.10;8.45;;;;;;;;;;10276241;28;20040;-72
2023/07/13 23:35:33;;;;;;;11.50;9.55;;;;;;;;;;10264807;28;20045;-72
2023/07/13 23:40:33;;;;;;;11.15;8.68;;;;;;;;;;10264182;28;20129;-72
2023/07/13 23:45:33;;;;;;;9.05;8.18;;;;;;;;;;10266593;28;20083;-73
2023/07/13 23:50:34;;;;;;;9.18;8.15;;;;;;;;;;10279927;28;20153;-72
2023/07/13 23:55:33;;;;;;;10.07;8.93;;;;;;;;;;10266302;28;20045;-73
